Waveland, IN (47989)

2:16 PM EST on February 12, 2016 (GMT -0500)
Waveland | | Change Station
CLOSE
Current Station
Personal Weather Station
Location: Waveland, IN
Elevation: 781 ft
Nearby Weather Stations

Elev 781 ft 39.87 °N, 87.03 °W | Updated 3 minutes ago

Snow
Snow
24.8 °F
Feels Like 16 °F
N
8.3
Wind Variable Wind from WNW

Today
High -- | Low -- °F
--% Chance of Precip.
Yesterday
High -- | Low -- °F
Precip. -- in
Pressure 30.22 in
Visibility 10.0 miles
Clouds Overcast 1800 ft
Windchill 16 °F
Dew Point 20 °F
Humidity 80%
Rainfall 0.03 in
Snow Depth Not available.
7:45 AM 6:20 PM
Waxing Crescent, 23% visible
METAR KHUF 121853Z 28009KT 10SM OVC018 M03/M07 A3019 RMK AO2 SLP231 T10281072
Pressure 30.22 in
Visibility 10.0 miles
Clouds Overcast 1800 ft
Windchill 16 °F
Dew Point 20 °F
Humidity 80%
Rainfall 0.03 in
Snow Depth Not available.
7:45 AM 6:20 PM
Waxing Crescent, 23% visible
METAR KHUF 121853Z 28009KT 10SM OVC018 M03/M07 A3019 RMK AO2 SLP231 T10281072

10-Day Weather Forecast

Almanac

Astronomy

Feb. 12, 2016 Rise Set
Actual Time
Civil Twilight
Nautical Twilight
Astronomical Twilight
Moon
Length of Visible Light
Length of Day
Tomorrow will be .
, % of the Moon is Illuminated

Today's Extremes

State Highs State Lows

Community

WunderPhotos

Upload Photos

1,892,376 photos uploaded!

WunderBlog® & News

Nearby

Air Quality

  Air Quality AQ Index Pollutant
Not available.

Snow Depth

Station Depth Elevation

Earthquake Activity

City Distance Mag. Time & Date
Minimum magnitude displayed is 2.5.

Coastal Water Temperatures

Place Temperature

Stations

Nearby Weather Stations

Station Location Temp. Windchill Dew Point Humidity Wind Precip. Elev Updated Type
                   

Watches & Warnings

There are currently no watches in effect.